Olinda, Brazil
Current Conditions -  °F | °C
As of 11:00 AM on Wednesday 22 Oct 2014 (Local Time) from SBRF Reporting Station
Rain Showers Rain Showers  
Wind Chill: 81°   Ceiling: 6000
Heat Index: 85°   Visibility: 6mi
Dew Point: 72°   Wind: 9mph
Humidity: 74%   Direction: 60°ENE
Pressure: 30"   Gusts: NA
Location:  8.01°S, 34.86°W
Report Text: SBRF 221400Z 06008KT 9999 VCSH SCT019 BKN060 27/22 Q1016
Loading
Personal Weather Stations






























Interactive Weather Map
Tropical Storm Tracking
New forecast layout! Learn more

10-Day Weather Forecast

Advertisements
Track Severe Weather on mobile